createdAt,value
2023-03-16T00:01:42.781Z,6.12
2023-03-16T00:04:09.424Z,6.10
2023-03-16T00:06:36.067Z,6.10
2023-03-16T00:09:02.992Z,6.16
2023-03-16T00:11:29.663Z,6.03
2023-03-16T00:13:56.302Z,6.01
2023-03-16T00:16:23.065Z,6.08
2023-03-16T00:18:49.770Z,6.01
2023-03-16T00:21:16.448Z,5.97
2023-03-16T00:23:43.091Z,5.91
2023-03-16T00:26:09.781Z,5.91
2023-03-16T00:28:36.516Z,5.86
2023-03-16T00:31:03.887Z,5.88
2023-03-16T00:33:30.506Z,5.96
2023-03-16T00:35:57.257Z,5.97
2023-03-16T00:38:23.931Z,5.90
2023-03-16T00:40:50.578Z,5.89
2023-03-16T00:43:17.222Z,6.01
2023-03-16T00:45:43.937Z,6.03
2023-03-16T00:48:10.967Z,6.02
2023-03-16T00:50:38.377Z,6.12
2023-03-16T00:53:05.030Z,6.10
2023-03-16T00:55:31.777Z,6.06
2023-03-16T00:57:58.404Z,6.06
2023-03-16T01:00:25.290Z,6.16
2023-03-16T01:02:52.127Z,6.14
2023-03-16T01:05:18.871Z,6.14
2023-03-16T01:07:45.542Z,6.11
2023-03-16T01:10:12.414Z,6.10
2023-03-16T01:12:39.102Z,6.03
2023-03-16T01:15:06.134Z,5.90
2023-03-16T01:17:32.818Z,5.90
2023-03-16T01:19:59.449Z,5.92
2023-03-16T01:22:26.070Z,5.92
2023-03-16T01:24:52.683Z,5.83
2023-03-16T01:27:19.312Z,5.88
2023-03-16T01:29:45.976Z,5.78
2023-03-16T01:32:12.763Z,5.59
2023-03-16T01:34:39.424Z,5.57
2023-03-16T01:37:06.059Z,5.50
2023-03-16T01:39:32.693Z,5.45
2023-03-16T01:41:59.317Z,5.51
2023-03-16T01:44:26.563Z,5.45
2023-03-16T01:46:53.192Z,5.46
2023-03-16T01:49:29.942Z,5.61
2023-03-16T01:52:08.428Z,5.66
2023-03-16T01:54:44.632Z,5.66
2023-03-16T01:57:19.474Z,5.70
2023-03-16T01:59:52.037Z,5.73
2023-03-16T02:02:20.119Z,5.72
2023-03-16T02:04:50.241Z,5.76
2023-03-16T02:07:17.282Z,5.75
2023-03-16T02:09:44.916Z,5.73
2023-03-16T02:12:11.693Z,5.61
2023-03-16T02:14:38.366Z,5.61
2023-03-16T02:17:05.086Z,5.61
2023-03-16T02:19:47.612Z,5.60
2023-03-16T02:22:14.274Z,5.61
2023-03-16T02:24:40.920Z,5.62
2023-03-16T02:27:16.220Z,5.62
2023-03-16T02:30:07.802Z,5.72
2023-03-16T02:32:34.526Z,5.68
2023-03-16T02:35:01.199Z,5.63
2023-03-16T02:37:27.901Z,5.57
2023-03-16T02:39:54.554Z,5.33
2023-03-16T02:42:22.507Z,5.19
2023-03-16T02:44:52.427Z,5.22
2023-03-16T02:47:33.877Z,5.38
2023-03-16T02:50:00.525Z,5.35
2023-03-16T02:52:27.203Z,5.38
2023-03-16T02:54:53.836Z,5.34
2023-03-16T02:57:20.502Z,5.37
2023-03-16T02:59:47.209Z,5.40
2023-03-16T03:02:13.870Z,5.50
2023-03-16T03:04:40.508Z,5.48
2023-03-16T03:07:07.162Z,5.52
2023-03-16T03:09:33.780Z,5.40
2023-03-16T03:12:00.445Z,5.40
2023-03-16T03:14:27.138Z,5.46
2023-03-16T03:16:53.976Z,5.46
2023-03-16T03:19:20.596Z,5.50
2023-03-16T03:21:47.263Z,5.46
2023-03-16T03:24:13.896Z,5.48
2023-03-16T03:26:40.541Z,5.45
2023-03-16T03:29:07.225Z,5.48
2023-03-16T03:31:33.927Z,5.49
2023-03-16T03:34:00.633Z,5.48
2023-03-16T03:36:27.284Z,5.49
2023-03-16T03:38:53.936Z,5.46
2023-03-16T03:41:20.580Z,5.41
2023-03-16T03:43:47.237Z,5.42
2023-03-16T03:46:14.053Z,5.45
2023-03-16T03:48:40.775Z,5.44
2023-03-16T03:51:07.421Z,5.42
2023-03-16T03:53:34.118Z,5.40
2023-03-16T03:56:00.736Z,5.37
2023-03-16T03:58:27.374Z,5.43
2023-03-16T04:00:54.019Z,5.39
2023-03-16T04:03:20.691Z,5.44
2023-03-16T04:05:47.408Z,5.40
2023-03-16T04:08:14.055Z,5.14
2023-03-16T04:10:41.103Z,5.11
2023-03-16T04:13:07.774Z,5.18
2023-03-16T04:15:34.414Z,5.26
2023-03-16T04:18:01.053Z,5.44
2023-03-16T04:20:27.806Z,5.47
2023-03-16T04:22:54.563Z,5.56
2023-03-16T04:25:21.189Z,5.59
2023-03-16T04:27:47.838Z,5.57
2023-03-16T04:30:14.949Z,5.61
2023-03-16T04:32:41.684Z,5.65
2023-03-16T04:35:08.769Z,5.54
2023-03-16T04:37:35.415Z,5.51
2023-03-16T04:40:02.066Z,5.44
2023-03-16T04:42:28.735Z,5.49
2023-03-16T04:44:55.369Z,5.54
2023-03-16T04:47:21.997Z,5.52
2023-03-16T04:49:48.665Z,5.44
2023-03-16T04:52:15.306Z,5.43
2023-03-16T04:54:41.956Z,5.38
2023-03-16T04:57:08.614Z,5.35
2023-03-16T04:59:35.277Z,5.30
2023-03-16T05:02:01.902Z,5.11
2023-03-16T05:04:28.566Z,5.12
2023-03-16T05:06:55.200Z,5.12
2023-03-16T05:09:21.867Z,5.14
2023-03-16T05:11:48.485Z,5.24
2023-03-16T05:14:15.130Z,5.09
2023-03-16T05:16:41.852Z,5.06
2023-03-16T05:19:08.564Z,5.06
2023-03-16T05:21:35.219Z,5.11
2023-03-16T05:24:01.917Z,5.18
2023-03-16T05:26:28.653Z,5.13
2023-03-16T05:28:55.285Z,5.11
2023-03-16T05:31:22.099Z,5.14
2023-03-16T05:33:48.740Z,5.13
2023-03-16T05:36:15.447Z,5.14
2023-03-16T05:38:42.141Z,5.06
2023-03-16T05:41:08.793Z,4.96
2023-03-16T05:43:35.516Z,4.80
2023-03-16T05:46:02.126Z,4.71
2023-03-16T05:48:28.754Z,4.74
2023-03-16T05:50:55.492Z,4.75
2023-03-16T05:53:22.168Z,4.84
2023-03-16T05:55:52.694Z,4.95
2023-03-16T05:58:19.326Z,4.98
2023-03-16T06:00:45.949Z,4.97
2023-03-16T06:03:12.618Z,5.04
2023-03-16T06:05:39.286Z,5.04
2023-03-16T06:08:07.162Z,5.04
2023-03-16T06:10:33.796Z,4.99
2023-03-16T06:13:00.455Z,4.98
2023-03-16T06:15:29.816Z,5.04
2023-03-16T06:17:56.485Z,5.03
2023-03-16T06:20:23.135Z,5.06
2023-03-16T06:22:49.821Z,5.05
2023-03-16T06:25:16.755Z,5.11
2023-03-16T06:27:43.423Z,5.16
2023-03-16T06:30:10.935Z,5.20
2023-03-16T06:32:37.902Z,5.22
2023-03-16T06:35:04.984Z,5.28
2023-03-16T06:37:31.656Z,5.30
2023-03-16T06:39:58.423Z,5.38
2023-03-16T06:42:25.138Z,5.37
2023-03-16T06:44:51.810Z,4.97
2023-03-16T06:47:18.787Z,5.25
2023-03-16T06:49:45.442Z,5.18
2023-03-16T06:52:12.260Z,5.36
2023-03-16T06:54:38.919Z,5.38
2023-03-16T06:57:05.572Z,5.64
2023-03-16T06:59:32.225Z,5.79
2023-03-16T07:01:58.894Z,5.94
2023-03-16T07:04:25.545Z,6.07
2023-03-16T07:06:52.182Z,6.28
2023-03-16T07:09:18.792Z,6.44
2023-03-16T07:11:45.490Z,6.42
2023-03-16T07:14:12.125Z,6.54
2023-03-16T07:16:38.833Z,6.63
2023-03-16T07:19:05.913Z,6.72
2023-03-16T07:21:32.601Z,6.79
2023-03-16T07:23:59.264Z,6.78
2023-03-16T07:26:25.941Z,6.79
2023-03-16T07:28:52.585Z,6.79
2023-03-16T07:31:19.278Z,6.33
2023-03-16T07:33:45.975Z,6.32
2023-03-16T07:36:12.695Z,6.40
2023-03-16T07:38:39.393Z,6.48
2023-03-16T07:41:06.041Z,6.33
2023-03-16T07:43:32.772Z,6.36
2023-03-16T07:45:59.494Z,6.34
2023-03-16T07:48:26.521Z,6.35
2023-03-16T07:50:53.228Z,6.35
2023-03-16T07:53:19.883Z,6.35
2023-03-16T07:55:47.275Z,6.51
2023-03-16T07:58:13.917Z,6.70
2023-03-16T08:00:40.679Z,6.91
2023-03-16T08:03:10.209Z,7.11
2023-03-16T08:05:36.929Z,7.32
2023-03-16T08:08:03.636Z,7.48
2023-03-16T08:10:30.896Z,7.56
2023-03-16T08:12:58.235Z,7.66
2023-03-16T08:15:27.808Z,7.71
2023-03-16T08:17:57.556Z,7.85
2023-03-16T08:20:24.710Z,7.93
2023-03-16T08:22:51.412Z,7.99
2023-03-16T08:25:18.501Z,8.01
2023-03-16T08:27:45.286Z,8.09
2023-03-16T08:30:12.831Z,8.17
2023-03-16T08:32:39.642Z,8.29
2023-03-16T08:35:08.424Z,8.33
2023-03-16T08:37:35.460Z,8.43
2023-03-16T08:40:03.825Z,8.70
2023-03-16T08:42:33.802Z,8.95
2023-03-16T08:45:00.492Z,9.22
2023-03-16T08:47:30.853Z,9.50
2023-03-16T08:50:02.996Z,9.73
2023-03-16T08:52:32.387Z,9.98
2023-03-16T08:55:03.692Z,10.12
2023-03-16T08:57:33.883Z,10.28
2023-03-16T09:00:00.617Z,10.40
2023-03-16T09:02:28.398Z,10.89
2023-03-16T09:04:56.069Z,12.04
2023-03-16T09:07:28.388Z,12.78
2023-03-16T09:09:57.642Z,13.37
2023-03-16T09:12:26.145Z,13.68
2023-03-16T09:14:53.174Z,13.98
2023-03-16T09:17:19.846Z,14.09
2023-03-16T09:19:51.737Z,13.98
2023-03-16T09:22:20.138Z,13.72
2023-03-16T09:24:47.408Z,13.53
2023-03-16T09:27:14.403Z,13.60
2023-03-16T09:29:41.972Z,13.45
2023-03-16T09:32:09.316Z,13.51
2023-03-16T09:34:35.958Z,13.70
2023-03-16T09:37:02.592Z,13.75
2023-03-16T09:39:29.285Z,13.65
2023-03-16T09:41:58.926Z,13.72
2023-03-16T09:44:53.933Z,13.61
2023-03-16T09:47:25.447Z,13.49
2023-03-16T09:49:52.073Z,13.41
2023-03-16T09:52:43.771Z,13.36
2023-03-16T09:55:26.270Z,13.35
2023-03-16T09:57:53.073Z,13.39
2023-03-16T10:00:34.756Z,13.23
2023-03-16T10:03:24.990Z,13.39
2023-03-16T10:06:03.814Z,13.42
2023-03-16T10:08:36.377Z,13.46
2023-03-16T10:11:26.269Z,13.58
2023-03-16T10:14:11.014Z,13.64
2023-03-16T10:16:49.917Z,13.62
2023-03-16T10:19:33.336Z,13.42
2023-03-16T10:22:00.724Z,13.37
2023-03-16T10:24:52.230Z,13.36
2023-03-16T10:27:20.097Z,13.53
2023-03-16T10:29:47.200Z,13.41
2023-03-16T10:32:15.713Z,13.44
2023-03-16T10:34:44.952Z,13.52
2023-03-16T10:37:13.278Z,13.60
2023-03-16T10:39:39.905Z,13.58
2023-03-16T10:42:16.046Z,13.55
2023-03-16T10:44:42.713Z,13.56
2023-03-16T10:47:17.498Z,13.64
2023-03-16T10:49:44.599Z,13.69
2023-03-16T10:52:18.840Z,13.74
2023-03-16T10:54:54.728Z,13.80
2023-03-16T10:57:32.146Z,13.80
2023-03-16T11:00:35.050Z,13.71
2023-03-16T11:03:01.712Z,13.83
2023-03-16T11:05:33.013Z,13.82
2023-03-16T11:08:00.559Z,13.85
2023-03-16T11:10:40.557Z,13.92
2023-03-16T11:13:17.601Z,13.97
2023-03-16T11:16:28.347Z,13.70
2023-03-16T11:18:58.684Z,13.70
2023-03-16T11:22:04.348Z,13.75
2023-03-16T11:24:51.038Z,13.70
2023-03-16T11:27:22.510Z,13.69
2023-03-16T11:29:57.674Z,13.77
2023-03-16T11:32:27.630Z,13.57
2023-03-16T11:34:57.458Z,13.45
2023-03-16T11:37:33.406Z,13.42
2023-03-16T11:40:07.343Z,13.42
2023-03-16T11:42:38.617Z,13.40
2023-03-16T11:45:14.275Z,13.34
2023-03-16T11:47:40.818Z,13.38
2023-03-16T11:50:31.847Z,13.26
2023-03-16T11:53:00.403Z,13.29
2023-03-16T11:55:34.022Z,13.21
2023-03-16T11:58:18.806Z,13.28
2023-03-16T12:00:51.390Z,13.15
2023-03-16T12:03:27.184Z,13.15
2023-03-16T12:06:16.895Z,13.15
2023-03-16T12:09:12.857Z,13.13
2023-03-16T12:11:57.559Z,13.06
2023-03-16T12:14:31.627Z,13.00
2023-03-16T12:17:05.936Z,13.03
2023-03-16T12:19:45.492Z,13.03
2023-03-16T12:22:36.295Z,12.87
2023-03-16T12:25:03.661Z,12.86
2023-03-16T12:27:32.772Z,12.81
2023-03-16T12:30:25.637Z,12.66
2023-03-16T12:32:55.053Z,12.65
2023-03-16T12:35:28.078Z,12.60
2023-03-16T12:38:08.361Z,12.65
2023-03-16T12:40:44.021Z,12.62
2023-03-16T12:43:16.725Z,12.66
2023-03-16T12:46:04.432Z,12.67
2023-03-16T12:48:32.704Z,12.61
2023-03-16T12:51:00.656Z,12.57
2023-03-16T12:53:55.073Z,12.56
2023-03-16T12:56:35.380Z,12.50
2023-03-16T12:59:03.238Z,12.49
2023-03-16T13:01:37.035Z,12.47
2023-03-16T13:04:23.747Z,12.47
2023-03-16T13:06:51.942Z,12.51
2023-03-16T13:09:22.996Z,12.51
2023-03-16T13:11:49.655Z,12.57
2023-03-16T13:14:35.620Z,12.58
2023-03-16T13:17:22.266Z,12.58
2023-03-16T13:20:06.640Z,12.66
2023-03-16T13:22:47.383Z,12.68
2023-03-16T13:25:29.413Z,12.70
2023-03-16T13:27:56.399Z,12.75
2023-03-16T13:30:31.171Z,12.77
2023-03-16T13:33:06.108Z,12.82
2023-03-16T13:35:32.840Z,12.81
2023-03-16T13:38:04.191Z,12.84
2023-03-16T13:40:31.457Z,13.21
2023-03-16T13:42:58.452Z,13.17
2023-03-16T13:45:32.589Z,13.07
2023-03-16T13:48:00.564Z,12.99
2023-03-16T13:50:27.435Z,13.05
2023-03-16T13:53:04.132Z,13.07
2023-03-16T13:55:33.137Z,13.06
2023-03-16T13:57:59.821Z,13.14
2023-03-16T14:00:30.937Z,13.12
2023-03-16T14:02:58.886Z,13.08
2023-03-16T14:05:35.017Z,13.13
2023-03-16T14:08:01.826Z,13.25
2023-03-16T14:10:31.802Z,13.32
2023-03-16T14:13:07.153Z,13.38
2023-03-16T14:15:33.840Z,13.43
2023-03-16T14:18:39.952Z,13.46
2023-03-16T14:21:08.344Z,13.56
2023-03-16T14:23:41.595Z,13.62
2023-03-16T14:26:13.472Z,13.69
2023-03-16T14:28:40.182Z,13.89
2023-03-16T14:31:10.203Z,13.80
2023-03-16T14:33:38.004Z,13.77
2023-03-16T14:36:15.372Z,13.77
2023-03-16T14:38:42.976Z,13.85
2023-03-16T14:41:12.567Z,13.79
2023-03-16T14:43:45.886Z,13.73
2023-03-16T14:46:15.529Z,13.80
2023-03-16T14:48:42.686Z,13.75
2023-03-16T14:51:12.278Z,13.80
2023-03-16T14:53:39.161Z,13.83
2023-03-16T14:56:11.174Z,13.88
2023-03-16T14:58:37.841Z,13.76
2023-03-16T15:01:04.630Z,13.61
2023-03-16T15:03:35.397Z,13.60
2023-03-16T15:06:02.105Z,13.59
2023-03-16T15:08:30.013Z,13.69
2023-03-16T15:11:00.779Z,13.78
2023-03-16T15:13:27.455Z,14.05
2023-03-16T15:15:54.263Z,14.16
2023-03-16T15:18:20.982Z,14.30
2023-03-16T15:20:47.641Z,14.31
2023-03-16T15:23:15.116Z,14.20
2023-03-16T15:25:45.130Z,14.12
2023-03-16T15:28:17.537Z,13.99
2023-03-16T15:30:45.741Z,13.91
2023-03-16T15:33:12.494Z,13.83
2023-03-16T15:35:39.299Z,13.66
2023-03-16T15:38:16.783Z,13.25
2023-03-16T15:40:43.593Z,12.76
2023-03-16T15:43:14.251Z,12.54
2023-03-16T15:45:40.886Z,12.90
2023-03-16T15:48:09.144Z,13.96
2023-03-16T15:50:38.223Z,13.71
2023-03-16T15:53:07.005Z,14.02
2023-03-16T15:55:41.767Z,13.87
2023-03-16T15:58:16.512Z,13.72
2023-03-16T16:00:43.246Z,13.70
2023-03-16T16:03:11.429Z,13.67
2023-03-16T16:05:38.063Z,13.73
2023-03-16T16:08:04.684Z,13.72
2023-03-16T16:10:31.661Z,13.57
2023-03-16T16:12:58.461Z,13.64
2023-03-16T16:15:32.404Z,13.65
2023-03-16T16:18:20.000Z,13.56
2023-03-16T16:20:46.357Z,13.38
2023-03-16T16:23:13.085Z,13.37
2023-03-16T16:25:40.069Z,13.18
2023-03-16T16:28:15.249Z,13.08
2023-03-16T16:30:41.901Z,13.01
2023-03-16T16:33:28.824Z,13.01
2023-03-16T16:35:58.602Z,13.01
2023-03-16T16:38:25.296Z,12.96
2023-03-16T16:40:52.638Z,12.90
2023-03-16T16:43:37.951Z,12.83
2023-03-16T16:46:14.409Z,12.84
2023-03-16T16:48:44.133Z,12.81
2023-03-16T16:51:18.261Z,12.78
2023-03-16T16:53:48.294Z,12.77
2023-03-16T16:56:15.618Z,12.77
2023-03-16T16:58:42.421Z,12.79
2023-03-16T17:01:13.290Z,12.81
2023-03-16T17:03:40.008Z,12.85
2023-03-16T17:06:06.764Z,12.87
2023-03-16T17:08:33.410Z,12.90
2023-03-16T17:11:00.046Z,12.90
2023-03-16T17:13:37.610Z,13.07
2023-03-16T17:16:04.709Z,13.13
2023-03-16T17:18:31.345Z,13.10
2023-03-16T17:20:57.968Z,13.13
2023-03-16T17:23:31.352Z,13.05
2023-03-16T17:25:58.693Z,13.06
2023-03-16T17:28:25.887Z,13.02
2023-03-16T17:30:53.738Z,12.97
2023-03-16T17:33:20.404Z,12.87
2023-03-16T17:35:47.377Z,12.84
2023-03-16T17:38:21.346Z,12.79
2023-03-16T17:40:48.124Z,12.75
2023-03-16T17:43:23.750Z,12.60
2023-03-16T17:45:51.055Z,12.50
2023-03-16T17:48:22.327Z,12.41
2023-03-16T17:50:49.040Z,12.33
2023-03-16T17:53:16.545Z,12.18
2023-03-16T17:55:43.437Z,12.05
2023-03-16T17:58:23.287Z,11.96
2023-03-16T18:00:49.966Z,12.05
2023-03-16T18:03:16.668Z,11.89
2023-03-16T18:05:43.533Z,11.80
2023-03-16T18:08:22.372Z,11.70
2023-03-16T18:10:50.860Z,11.60
2023-03-16T18:13:20.589Z,11.55
2023-03-16T18:15:47.395Z,11.50
2023-03-16T18:18:16.746Z,11.45
2023-03-16T18:20:43.403Z,11.43
2023-03-16T18:23:15.973Z,11.37
2023-03-16T18:25:42.697Z,11.51
2023-03-16T18:28:10.009Z,11.31
2023-03-16T18:30:37.546Z,11.26
2023-03-16T18:33:05.549Z,11.17
2023-03-16T18:35:32.406Z,11.22
2023-03-16T18:37:59.156Z,11.15
2023-03-16T18:40:26.089Z,11.14
2023-03-16T18:42:52.953Z,11.09
2023-03-16T18:45:19.665Z,11.03
2023-03-16T18:47:53.560Z,11.12
2023-03-16T18:50:26.339Z,11.02
2023-03-16T18:52:53.577Z,10.96
2023-03-16T18:55:22.595Z,10.84
2023-03-16T18:57:49.367Z,10.77
2023-03-16T19:00:17.907Z,10.74
2023-03-16T19:02:44.571Z,10.77
2023-03-16T19:05:18.949Z,10.84
2023-03-16T19:07:47.518Z,10.74
2023-03-16T19:10:28.280Z,10.58
2023-03-16T19:12:54.964Z,10.50
2023-03-16T19:15:23.717Z,10.40
2023-03-16T19:17:50.747Z,10.40
2023-03-16T19:20:19.150Z,10.38
2023-03-16T19:22:45.946Z,10.37
2023-03-16T19:25:26.339Z,10.36
2023-03-16T19:27:53.038Z,10.35
2023-03-16T19:30:27.634Z,10.34
2023-03-16T19:32:54.408Z,10.35
2023-03-16T19:35:21.248Z,10.45
2023-03-16T19:37:47.906Z,10.45
2023-03-16T19:40:15.956Z,10.34
2023-03-16T19:42:42.685Z,10.15
2023-03-16T19:45:30.034Z,9.99
2023-03-16T19:47:56.862Z,10.02
2023-03-16T19:50:24.807Z,10.07
2023-03-16T19:52:51.497Z,10.06
2023-03-16T19:55:21.199Z,10.02
2023-03-16T19:57:48.509Z,10.07
2023-03-16T20:00:33.415Z,10.01
2023-03-16T20:03:00.105Z,9.87
2023-03-16T20:05:28.463Z,9.79
2023-03-16T20:07:57.026Z,9.77
2023-03-16T20:10:28.420Z,9.76
2023-03-16T20:12:58.609Z,9.86
2023-03-16T20:15:28.713Z,9.80
2023-03-16T20:17:55.516Z,9.76
2023-03-16T20:20:24.734Z,9.67
2023-03-16T20:22:51.427Z,9.67
2023-03-16T20:25:18.345Z,9.66
2023-03-16T20:27:45.750Z,9.70
2023-03-16T20:30:16.934Z,9.78
2023-03-16T20:32:44.212Z,9.67
2023-03-16T20:35:17.705Z,9.60
2023-03-16T20:37:44.504Z,9.60
2023-03-16T20:40:11.201Z,9.65
2023-03-16T20:42:37.875Z,9.57
2023-03-16T20:45:15.677Z,9.63
2023-03-16T20:47:42.290Z,9.61
2023-03-16T20:50:17.352Z,9.54
2023-03-16T20:52:44.072Z,9.35
2023-03-16T20:55:14.024Z,9.35
2023-03-16T20:57:40.710Z,9.27
2023-03-16T21:00:17.117Z,9.22
2023-03-16T21:02:43.754Z,9.27
2023-03-16T21:05:10.685Z,9.37
2023-03-16T21:07:37.419Z,9.38
2023-03-16T21:10:04.077Z,9.40
2023-03-16T21:12:34.694Z,9.42
2023-03-16T21:15:01.454Z,9.34
2023-03-16T21:17:32.490Z,9.30
2023-03-16T21:19:59.360Z,9.16
2023-03-16T21:22:30.510Z,9.05
2023-03-16T21:24:57.359Z,8.98
2023-03-16T21:27:28.637Z,8.87
2023-03-16T21:29:55.592Z,8.86
2023-03-16T21:32:23.875Z,8.72
2023-03-16T21:34:50.499Z,8.71
2023-03-16T21:37:18.474Z,8.62
2023-03-16T21:39:45.762Z,8.61
2023-03-16T21:42:12.391Z,8.62
2023-03-16T21:44:39.267Z,8.67
2023-03-16T21:47:17.429Z,8.52
2023-03-16T21:49:44.098Z,8.59
2023-03-16T21:52:20.399Z,8.71
2023-03-16T21:54:47.056Z,8.77
2023-03-16T21:57:14.090Z,8.79
2023-03-16T21:59:40.797Z,8.87
2023-03-16T22:02:26.608Z,8.84
2023-03-16T22:04:53.428Z,8.69
2023-03-16T22:07:20.078Z,8.79
2023-03-16T22:09:46.735Z,8.71
2023-03-16T22:12:13.594Z,8.67
2023-03-16T22:14:40.321Z,8.62
2023-03-16T22:17:06.957Z,8.55
2023-03-16T22:19:33.754Z,8.47
2023-03-16T22:22:00.461Z,8.38
2023-03-16T22:24:28.383Z,8.38
2023-03-16T22:26:55.044Z,8.38
2023-03-16T22:29:25.048Z,8.32
2023-03-16T22:31:57.888Z,8.30
2023-03-16T22:34:32.512Z,8.35
2023-03-16T22:36:59.725Z,8.46
2023-03-16T22:39:26.403Z,8.57
2023-03-16T22:41:53.028Z,8.62
2023-03-16T22:44:22.491Z,8.70
2023-03-16T22:46:49.518Z,8.76
2023-03-16T22:49:26.781Z,8.85
2023-03-16T22:51:54.348Z,8.90
2023-03-16T22:54:21.004Z,8.84
2023-03-16T22:56:47.691Z,8.88
2023-03-16T22:59:16.185Z,8.79
2023-03-16T23:01:43.942Z,8.72
2023-03-16T23:04:23.059Z,8.60
2023-03-16T23:06:52.244Z,8.56
2023-03-16T23:09:20.113Z,8.41
2023-03-16T23:11:46.980Z,8.36
2023-03-16T23:14:24.473Z,8.49
2023-03-16T23:16:51.156Z,8.41
2023-03-16T23:19:28.425Z,8.35
2023-03-16T23:21:56.212Z,8.44
2023-03-16T23:24:22.836Z,8.49
2023-03-16T23:26:50.130Z,8.54
2023-03-16T23:29:16.763Z,8.56
2023-03-16T23:31:43.433Z,8.47
2023-03-16T23:34:14.962Z,8.51
2023-03-16T23:36:41.616Z,8.54
2023-03-16T23:39:08.328Z,8.60
2023-03-16T23:41:35.002Z,8.52
2023-03-16T23:44:01.646Z,8.48
2023-03-16T23:46:28.485Z,8.49
2023-03-16T23:48:55.827Z,8.36
2023-03-16T23:51:30.007Z,8.34
2023-03-16T23:53:57.747Z,8.40
2023-03-16T23:56:24.802Z,8.42
2023-03-16T23:58:51.442Z,8.33
